createdAt,value
2023-05-05T00:03:04.479Z,12.94
2023-05-05T00:08:08.067Z,12.95
2023-05-05T00:13:11.130Z,12.87
2023-05-05T00:18:16.974Z,12.79
2023-05-05T00:23:20.694Z,12.73
2023-05-05T00:28:23.949Z,12.65
2023-05-05T00:33:27.290Z,12.58
2023-05-05T00:38:30.273Z,12.51
2023-05-05T00:43:33.426Z,12.43
2023-05-05T00:48:36.585Z,12.32
2023-05-05T00:53:43.280Z,12.34
2023-05-05T00:59:05.118Z,12.37
2023-05-05T01:04:08.085Z,12.35
2023-05-05T01:09:27.370Z,12.31
2023-05-05T01:14:59.404Z,12.35
2023-05-05T01:20:22.044Z,12.34
2023-05-05T01:25:43.938Z,12.42
2023-05-05T01:31:42.384Z,12.44
2023-05-05T01:36:51.577Z,12.58
2023-05-05T01:41:59.677Z,12.70
2023-05-05T01:47:05.633Z,12.82
2023-05-05T01:52:10.519Z,12.96
2023-05-05T01:57:14.682Z,13.16
2023-05-05T02:02:20.497Z,13.26
2023-05-05T02:07:24.605Z,13.36
2023-05-05T02:12:29.373Z,13.39
2023-05-05T02:17:33.257Z,13.43
2023-05-05T02:22:36.309Z,13.48
2023-05-05T02:27:43.281Z,13.63
2023-05-05T02:32:56.606Z,13.68
2023-05-05T02:38:05.724Z,13.77
2023-05-05T02:43:18.423Z,13.91
2023-05-05T02:48:22.550Z,14.04
2023-05-05T02:53:29.124Z,14.12
2023-05-05T02:58:42.735Z,14.05
2023-05-05T03:04:08.971Z,14.29
2023-05-05T03:09:55.004Z,14.57
2023-05-05T03:15:16.828Z,14.83
2023-05-05T03:20:22.218Z,14.98
2023-05-05T03:25:42.725Z,15.07
2023-05-05T03:31:04.676Z,15.06
2023-05-05T03:36:10.953Z,15.05
2023-05-05T03:41:14.675Z,15.15
2023-05-05T03:46:36.192Z,15.37
2023-05-05T03:51:40.751Z,15.47
2023-05-05T03:56:43.995Z,15.54
2023-05-05T04:01:49.209Z,15.46
2023-05-05T04:06:52.985Z,15.63
2023-05-05T04:11:56.293Z,15.79
2023-05-05T04:16:59.211Z,16.05
2023-05-05T04:22:20.761Z,16.13
2023-05-05T04:27:26.425Z,16.43
2023-05-05T04:32:29.867Z,16.81
2023-05-05T04:37:33.070Z,17.15
2023-05-05T04:42:36.914Z,17.38
2023-05-05T04:47:41.084Z,17.55
2023-05-05T04:52:44.286Z,17.65
2023-05-05T04:57:47.272Z,17.89
2023-05-05T05:02:50.405Z,18.03
2023-05-05T05:07:53.395Z,18.41
2023-05-05T05:12:56.316Z,18.57
2023-05-05T05:17:59.503Z,18.57
2023-05-05T05:23:02.702Z,18.62
2023-05-05T05:28:10.586Z,18.88
2023-05-05T05:33:22.757Z,19.06
2023-05-05T05:38:27.067Z,19.17
2023-05-05T05:43:33.990Z,19.37
2023-05-05T05:48:36.987Z,19.44
2023-05-05T05:53:40.278Z,19.63
2023-05-05T05:58:45.534Z,19.81
2023-05-05T06:03:48.597Z,20.14
2023-05-05T06:08:52.148Z,20.32
2023-05-05T06:13:55.160Z,20.66
2023-05-05T06:18:58.294Z,20.95
2023-05-05T06:24:01.369Z,21.24
2023-05-05T06:29:04.663Z,21.60
2023-05-05T06:34:07.612Z,21.75
2023-05-05T06:39:10.571Z,22.24
2023-05-05T06:44:13.964Z,22.56
2023-05-05T06:49:16.982Z,23.00
2023-05-05T06:54:19.879Z,23.10
2023-05-05T06:59:22.757Z,23.39
2023-05-05T07:04:25.700Z,23.75
2023-05-05T07:09:28.682Z,23.36
2023-05-05T07:14:31.617Z,23.22
2023-05-05T07:19:34.515Z,23.07
2023-05-05T07:24:37.392Z,23.07
2023-05-05T07:29:40.411Z,23.03
2023-05-05T07:34:43.298Z,22.90
2023-05-05T07:39:47.843Z,23.06
2023-05-05T07:44:50.983Z,23.24
2023-05-05T07:49:54.476Z,23.83
2023-05-05T07:54:57.310Z,23.78
2023-05-05T08:00:00.148Z,24.03
2023-05-05T08:05:03.016Z,24.41
2023-05-05T08:10:07.236Z,24.62
2023-05-05T08:15:28.577Z,24.85
2023-05-05T08:20:31.512Z,24.57
2023-05-05T08:25:53.280Z,24.86
2023-05-05T08:30:56.328Z,24.92
2023-05-05T08:35:59.345Z,25.08
2023-05-05T08:41:02.413Z,24.58
2023-05-05T08:46:05.731Z,24.56
2023-05-05T08:51:10.364Z,25.08
2023-05-05T08:56:14.331Z,24.99
2023-05-05T09:01:45.536Z,24.99
2023-05-05T09:06:48.631Z,24.35
2023-05-05T09:11:53.152Z,24.33
2023-05-05T09:16:56.219Z,24.03
2023-05-05T09:21:59.171Z,24.05
2023-05-05T09:27:22.536Z,23.96
2023-05-05T09:32:27.586Z,24.20
2023-05-05T09:37:50.298Z,24.27
2023-05-05T09:43:01.973Z,24.65
2023-05-05T09:48:06.872Z,24.55
2023-05-05T09:53:11.123Z,24.27
2023-05-05T09:58:28.204Z,24.16
2023-05-05T10:03:31.416Z,24.71
2023-05-05T10:08:34.711Z,25.17
2023-05-05T10:13:42.244Z,24.79
2023-05-05T10:18:46.957Z,24.93
2023-05-05T10:24:03.709Z,25.49
2023-05-05T10:29:16.455Z,25.62
2023-05-05T10:34:34.702Z,24.87
2023-05-05T10:39:57.823Z,24.57
2023-05-05T10:45:01.058Z,24.37
2023-05-05T10:50:13.575Z,24.32
2023-05-05T10:55:35.246Z,23.99
2023-05-05T11:00:41.365Z,23.88
2023-05-05T11:06:08.684Z,24.19
2023-05-05T11:11:12.941Z,24.44
2023-05-05T11:16:48.339Z,23.99
2023-05-05T11:22:10.230Z,24.54
2023-05-05T11:27:13.274Z,25.06
2023-05-05T11:32:16.390Z,24.63
2023-05-05T11:37:23.431Z,25.30
2023-05-05T11:42:27.341Z,25.45
2023-05-05T11:47:31.259Z,25.19
2023-05-05T11:52:34.803Z,24.30
2023-05-05T11:57:37.836Z,24.79
2023-05-05T12:02:40.899Z,25.05
2023-05-05T12:07:44.145Z,24.36
2023-05-05T12:12:47.283Z,23.97
2023-05-05T12:17:51.065Z,23.86
2023-05-05T12:23:00.798Z,24.05
2023-05-05T12:28:04.653Z,24.04
2023-05-05T12:33:08.508Z,23.70
2023-05-05T12:38:11.735Z,23.33
2023-05-05T12:43:32.283Z,24.21
2023-05-05T12:48:38.318Z,24.07
2023-05-05T12:53:41.558Z,24.25
2023-05-05T12:58:48.875Z,23.95
2023-05-05T13:04:12.159Z,24.70
2023-05-05T13:09:25.322Z,24.83
2023-05-05T13:14:28.449Z,24.15
2023-05-05T13:19:32.230Z,23.95
2023-05-05T13:24:49.786Z,23.72
2023-05-05T13:29:55.116Z,23.60
2023-05-05T13:34:58.234Z,24.48
2023-05-05T13:40:01.561Z,24.50
2023-05-05T13:45:06.902Z,24.37
2023-05-05T13:50:10.245Z,24.17
2023-05-05T13:55:13.164Z,24.17
2023-05-05T14:00:16.953Z,23.50
2023-05-05T14:05:20.655Z,23.82
2023-05-05T14:10:23.711Z,24.13
2023-05-05T14:15:26.864Z,24.02
2023-05-05T14:20:30.407Z,24.12
2023-05-05T14:25:33.300Z,23.41
2023-05-05T14:30:36.479Z,23.46
2023-05-05T14:35:39.469Z,23.06
2023-05-05T14:41:01.238Z,22.62
2023-05-05T14:46:07.018Z,22.17
2023-05-05T14:51:10.162Z,21.82
2023-05-05T14:56:13.215Z,21.75
2023-05-05T15:01:16.481Z,21.75
2023-05-05T15:06:19.997Z,21.58
2023-05-05T15:11:22.931Z,21.48
2023-05-05T15:16:25.817Z,21.39
2023-05-05T15:21:29.191Z,21.04
2023-05-05T15:26:50.783Z,20.77
2023-05-05T15:31:53.681Z,20.62
2023-05-05T15:36:57.275Z,20.22
2023-05-05T15:42:04.031Z,20.13
2023-05-05T15:47:07.388Z,19.72
2023-05-05T15:52:10.710Z,19.49
2023-05-05T15:57:13.836Z,19.31
2023-05-05T16:02:16.857Z,19.15
2023-05-05T16:07:20.119Z,18.99
2023-05-05T16:12:41.600Z,18.89
2023-05-05T16:17:44.771Z,18.77
2023-05-05T16:23:07.086Z,18.61
2023-05-05T16:28:10.163Z,18.49
2023-05-05T16:33:13.257Z,18.28
2023-05-05T16:38:16.468Z,18.14
2023-05-05T16:43:19.776Z,17.83
2023-05-05T16:48:22.752Z,17.60
2023-05-05T16:53:25.902Z,17.54
2023-05-05T16:58:28.937Z,17.20
2023-05-05T17:03:31.938Z,17.00
2023-05-05T17:08:34.842Z,16.90
2023-05-05T17:13:37.871Z,16.73
2023-05-05T17:18:40.887Z,16.64
2023-05-05T17:23:44.265Z,16.55
2023-05-05T17:28:47.301Z,16.42
2023-05-05T17:33:50.377Z,16.29
2023-05-05T17:38:53.363Z,16.20
2023-05-05T17:43:56.336Z,16.15
2023-05-05T17:49:17.941Z,16.01
2023-05-05T17:54:39.402Z,15.92
2023-05-05T17:59:42.453Z,15.83
2023-05-05T18:04:46.628Z,15.74
2023-05-05T18:10:10.822Z,15.67
2023-05-05T18:15:13.954Z,15.58
2023-05-05T18:20:35.629Z,15.54
2023-05-05T18:25:38.788Z,15.36
2023-05-05T18:30:41.700Z,15.27
2023-05-05T18:36:04.362Z,15.12
2023-05-05T18:41:07.336Z,14.94
2023-05-05T18:46:11.043Z,14.86
2023-05-05T18:51:13.914Z,14.79
2023-05-05T18:56:16.821Z,14.41
2023-05-05T19:01:21.337Z,14.05
2023-05-05T19:06:24.408Z,13.79
2023-05-05T19:11:27.526Z,13.81
2023-05-05T19:16:30.402Z,13.58
2023-05-05T19:21:33.912Z,13.26
2023-05-05T19:26:37.062Z,12.98
2023-05-05T19:31:39.849Z,12.78
2023-05-05T19:36:42.834Z,12.65
2023-05-05T19:41:46.064Z,12.68
2023-05-05T19:46:49.090Z,12.56
2023-05-05T19:51:53.099Z,12.40
2023-05-05T19:56:57.448Z,12.33
2023-05-05T20:02:19.150Z,12.32
2023-05-05T20:07:22.146Z,12.31
2023-05-05T20:12:25.059Z,12.29
2023-05-05T20:17:28.045Z,12.17
2023-05-05T20:22:31.608Z,11.72
2023-05-05T20:27:36.051Z,10.20
2023-05-05T20:32:39.442Z,9.86
2023-05-05T20:37:42.394Z,9.63
2023-05-05T20:42:45.523Z,9.43
2023-05-05T20:47:48.545Z,9.38
2023-05-05T20:52:51.818Z,9.42
2023-05-05T20:57:55.005Z,9.37
2023-05-05T21:02:58.038Z,9.40
2023-05-05T21:08:01.354Z,9.19
2023-05-05T21:13:04.560Z,9.17
2023-05-05T21:18:07.973Z,8.96
2023-05-05T21:23:11.971Z,8.97
2023-05-05T21:28:14.859Z,8.96
2023-05-05T21:33:17.857Z,8.94
2023-05-05T21:38:20.843Z,8.94
2023-05-05T21:43:25.815Z,8.70
2023-05-05T21:48:29.007Z,8.73
2023-05-05T21:53:31.963Z,8.69
2023-05-05T21:58:35.097Z,8.62
2023-05-05T22:03:39.748Z,8.57
2023-05-05T22:08:42.977Z,8.59
2023-05-05T22:13:47.061Z,8.58
2023-05-05T22:18:50.412Z,8.61
2023-05-05T22:23:53.725Z,8.70
2023-05-05T22:28:57.315Z,8.67
2023-05-05T22:34:00.345Z,8.58
2023-05-05T22:39:03.552Z,8.56
2023-05-05T22:44:07.160Z,8.53
2023-05-05T22:49:10.314Z,8.54
2023-05-05T22:54:13.462Z,8.53
2023-05-05T22:59:16.347Z,8.57
2023-05-05T23:04:19.261Z,8.34
2023-05-05T23:09:22.190Z,8.43
2023-05-05T23:14:25.227Z,8.40
2023-05-05T23:19:29.378Z,8.38
2023-05-05T23:24:32.700Z,8.44
2023-05-05T23:29:35.703Z,8.38
2023-05-05T23:34:38.706Z,8.46
2023-05-05T23:39:42.442Z,8.50
2023-05-05T23:44:45.303Z,8.53
2023-05-05T23:49:48.117Z,8.50
2023-05-05T23:54:51.328Z,8.50
2023-05-05T23:59:54.187Z,8.45
